sensor_id;sensor_type;location;lat;lon;timestamp;P1;durP1;ratioP1;P2;durP2;ratioP2
31728;SDS011;18309;43.658;1.312;2024-01-15T00:00:12;13.55;;;6.50;;
31728;SDS011;18309;43.658;1.312;2024-01-15T00:02:38;14.75;;;5.65;;
31728;SDS011;18309;43.658;1.312;2024-01-15T00:05:04;14.63;;;5.63;;
31728;SDS011;18309;43.658;1.312;2024-01-15T00:07:30;15.98;;;5.63;;
31728;SDS011;18309;43.658;1.312;2024-01-15T00:09:56;16.05;;;5.50;;
31728;SDS011;18309;43.658;1.312;2024-01-15T00:12:21;18.17;;;5.85;;
31728;SDS011;18309;43.658;1.312;2024-01-15T00:14:47;12.45;;;4.85;;
31728;SDS011;18309;43.658;1.312;2024-01-15T00:17:13;14.32;;;5.75;;
31728;SDS011;18309;43.658;1.312;2024-01-15T00:19:38;12.25;;;5.38;;
31728;SDS011;18309;43.658;1.312;2024-01-15T00:22:04;16.90;;;6.72;;
31728;SDS011;18309;43.658;1.312;2024-01-15T00:24:30;13.07;;;5.90;;
31728;SDS011;18309;43.658;1.312;2024-01-15T00:26:55;16.17;;;7.03;;
31728;SDS011;18309;43.658;1.312;2024-01-15T00:29:21;16.08;;;6.47;;
31728;SDS011;18309;43.658;1.312;2024-01-15T00:31:47;20.92;;;5.63;;
31728;SDS011;18309;43.658;1.312;2024-01-15T00:34:12;12.07;;;5.10;;
31728;SDS011;18309;43.658;1.312;2024-01-15T00:36:38;15.95;;;6.45;;
31728;SDS011;18309;43.658;1.312;2024-01-15T00:39:04;13.75;;;6.30;;
31728;SDS011;18309;43.658;1.312;2024-01-15T00:41:32;13.13;;;6.30;;
31728;SDS011;18309;43.658;1.312;2024-01-15T00:43:58;15.88;;;7.10;;
31728;SDS011;18309;43.658;1.312;2024-01-15T00:46:23;17.42;;;6.05;;
31728;SDS011;18309;43.658;1.312;2024-01-15T00:48:49;11.93;;;5.38;;
31728;SDS011;18309;43.658;1.312;2024-01-15T00:51:15;13.20;;;5.18;;
31728;SDS011;18309;43.658;1.312;2024-01-15T00:53:40;23.65;;;6.43;;
31728;SDS011;18309;43.658;1.312;2024-01-15T00:56:06;10.18;;;4.85;;
31728;SDS011;18309;43.658;1.312;2024-01-15T00:58:32;13.55;;;6.10;;
31728;SDS011;18309;43.658;1.312;2024-01-15T01:00:57;14.45;;;4.93;;
31728;SDS011;18309;43.658;1.312;2024-01-15T01:03:23;11.13;;;5.63;;
31728;SDS011;18309;43.658;1.312;2024-01-15T01:05:49;13.98;;;5.13;;
31728;SDS011;18309;43.658;1.312;2024-01-15T01:08:17;15.70;;;5.90;;
31728;SDS011;18309;43.658;1.312;2024-01-15T01:10:43;16.90;;;5.28;;
31728;SDS011;18309;43.658;1.312;2024-01-15T01:13:09;18.30;;;5.65;;
31728;SDS011;18309;43.658;1.312;2024-01-15T01:15:34;12.10;;;5.05;;
31728;SDS011;18309;43.658;1.312;2024-01-15T01:18:00;12.60;;;5.00;;
31728;SDS011;18309;43.658;1.312;2024-01-15T01:20:26;12.73;;;5.20;;
31728;SDS011;18309;43.658;1.312;2024-01-15T01:22:51;16.67;;;6.05;;
31728;SDS011;18309;43.658;1.312;2024-01-15T01:25:17;13.75;;;5.53;;
31728;SDS011;18309;43.658;1.312;2024-01-15T01:27:43;14.35;;;6.07;;
31728;SDS011;18309;43.658;1.312;2024-01-15T01:30:08;15.73;;;6.13;;
31728;SDS011;18309;43.658;1.312;2024-01-15T01:32:34;16.15;;;5.97;;
31728;SDS011;18309;43.658;1.312;2024-01-15T01:35:00;17.08;;;6.00;;
31728;SDS011;18309;43.658;1.312;2024-01-15T01:37:26;16.20;;;6.03;;
31728;SDS011;18309;43.658;1.312;2024-01-15T01:39:52;17.40;;;6.50;;
31728;SDS011;18309;43.658;1.312;2024-01-15T01:42:17;13.02;;;5.70;;
31728;SDS011;18309;43.658;1.312;2024-01-15T01:44:43;13.23;;;5.97;;
31728;SDS011;18309;43.658;1.312;2024-01-15T01:47:08;14.45;;;6.68;;
31728;SDS011;18309;43.658;1.312;2024-01-15T01:49:34;17.73;;;7.07;;
31728;SDS011;18309;43.658;1.312;2024-01-15T01:52:02;17.23;;;6.43;;
31728;SDS011;18309;43.658;1.312;2024-01-15T01:54:29;16.77;;;7.25;;
31728;SDS011;18309;43.658;1.312;2024-01-15T01:56:57;14.75;;;6.28;;
31728;SDS011;18309;43.658;1.312;2024-01-15T01:59:23;19.10;;;6.95;;
31728;SDS011;18309;43.658;1.312;2024-01-15T02:01:52;17.95;;;6.45;;
31728;SDS011;18309;43.658;1.312;2024-01-15T02:04:19;17.83;;;6.93;;
31728;SDS011;18309;43.658;1.312;2024-01-15T02:06:46;14.98;;;6.55;;
31728;SDS011;18309;43.658;1.312;2024-01-15T02:09:12;20.05;;;7.03;;
31728;SDS011;18309;43.658;1.312;2024-01-15T02:11:40;23.65;;;6.93;;
31728;SDS011;18309;43.658;1.312;2024-01-15T02:14:07;21.63;;;7.90;;
31728;SDS011;18309;43.658;1.312;2024-01-15T02:16:34;17.10;;;7.03;;
31728;SDS011;18309;43.658;1.312;2024-01-15T02:18:59;20.98;;;7.90;;
31728;SDS011;18309;43.658;1.312;2024-01-15T02:21:25;32.30;;;7.93;;
31728;SDS011;18309;43.658;1.312;2024-01-15T02:23:53;20.27;;;7.70;;
31728;SDS011;18309;43.658;1.312;2024-01-15T02:26:19;21.58;;;7.75;;
31728;SDS011;18309;43.658;1.312;2024-01-15T02:28:46;17.27;;;7.43;;
31728;SDS011;18309;43.658;1.312;2024-01-15T02:31:12;15.82;;;7.32;;
31728;SDS011;18309;43.658;1.312;2024-01-15T02:33:38;19.08;;;7.93;;
31728;SDS011;18309;43.658;1.312;2024-01-15T02:36:03;18.92;;;7.95;;
31728;SDS011;18309;43.658;1.312;2024-01-15T02:38:29;21.60;;;8.25;;
31728;SDS011;18309;43.658;1.312;2024-01-15T02:40:55;28.00;;;8.18;;
31728;SDS011;18309;43.658;1.312;2024-01-15T02:43:20;18.48;;;7.72;;
31728;SDS011;18309;43.658;1.312;2024-01-15T02:45:46;21.13;;;9.30;;
31728;SDS011;18309;43.658;1.312;2024-01-15T02:48:12;26.83;;;9.48;;
31728;SDS011;18309;43.658;1.312;2024-01-15T02:50:38;26.58;;;9.88;;
31728;SDS011;18309;43.658;1.312;2024-01-15T02:53:03;21.35;;;9.50;;
31728;SDS011;18309;43.658;1.312;2024-01-15T02:55:29;25.85;;;8.50;;
31728;SDS011;18309;43.658;1.312;2024-01-15T02:57:55;26.40;;;9.70;;
31728;SDS011;18309;43.658;1.312;2024-01-15T03:00:21;30.65;;;10.82;;
31728;SDS011;18309;43.658;1.312;2024-01-15T03:02:47;32.28;;;10.50;;
31728;SDS011;18309;43.658;1.312;2024-01-15T03:05:16;33.08;;;11.82;;
31728;SDS011;18309;43.658;1.312;2024-01-15T03:07:41;29.90;;;11.07;;
31728;SDS011;18309;43.658;1.312;2024-01-15T03:10:08;21.27;;;10.00;;
31728;SDS011;18309;43.658;1.312;2024-01-15T03:12:34;37.28;;;13.10;;
31728;SDS011;18309;43.658;1.312;2024-01-15T03:14:59;37.75;;;12.43;;
31728;SDS011;18309;43.658;1.312;2024-01-15T03:17:25;40.22;;;12.38;;
31728;SDS011;18309;43.658;1.312;2024-01-15T03:19:51;35.95;;;12.02;;
31728;SDS011;18309;43.658;1.312;2024-01-15T03:22:17;39.20;;;12.73;;
31728;SDS011;18309;43.658;1.312;2024-01-15T03:24:43;31.27;;;11.98;;
31728;SDS011;18309;43.658;1.312;2024-01-15T03:27:09;36.55;;;12.18;;
31728;SDS011;18309;43.658;1.312;2024-01-15T03:29:34;30.45;;;10.98;;
31728;SDS011;18309;43.658;1.312;2024-01-15T03:32:00;21.92;;;10.93;;
31728;SDS011;18309;43.658;1.312;2024-01-15T03:34:26;22.25;;;11.18;;
31728;SDS011;18309;43.658;1.312;2024-01-15T03:36:51;31.48;;;11.23;;
31728;SDS011;18309;43.658;1.312;2024-01-15T03:39:17;30.48;;;12.18;;
31728;SDS011;18309;43.658;1.312;2024-01-15T03:41:42;31.85;;;11.77;;
31728;SDS011;18309;43.658;1.312;2024-01-15T03:44:08;27.70;;;11.65;;
31728;SDS011;18309;43.658;1.312;2024-01-15T03:46:34;23.45;;;10.85;;
31728;SDS011;18309;43.658;1.312;2024-01-15T03:48:59;26.95;;;11.57;;
31728;SDS011;18309;43.658;1.312;2024-01-15T03:51:25;27.27;;;11.15;;
31728;SDS011;18309;43.658;1.312;2024-01-15T03:53:51;21.63;;;10.77;;
31728;SDS011;18309;43.658;1.312;2024-01-15T03:56:16;22.90;;;11.25;;
31728;SDS011;18309;43.658;1.312;2024-01-15T03:58:42;25.50;;;10.60;;
31728;SDS011;18309;43.658;1.312;2024-01-15T04:01:10;28.20;;;11.45;;
31728;SDS011;18309;43.658;1.312;2024-01-15T04:03:36;27.60;;;11.48;;
31728;SDS011;18309;43.658;1.312;2024-01-15T04:06:02;27.75;;;11.85;;
31728;SDS011;18309;43.658;1.312;2024-01-15T04:08:29;27.50;;;11.70;;
31728;SDS011;18309;43.658;1.312;2024-01-15T04:10:54;23.10;;;12.00;;
31728;SDS011;18309;43.658;1.312;2024-01-15T04:13:20;34.47;;;12.18;;
31728;SDS011;18309;43.658;1.312;2024-01-15T04:15:46;23.73;;;11.70;;
31728;SDS011;18309;43.658;1.312;2024-01-15T04:18:12;25.63;;;11.15;;
31728;SDS011;18309;43.658;1.312;2024-01-15T04:20:38;25.20;;;11.20;;
31728;SDS011;18309;43.658;1.312;2024-01-15T04:23:04;25.90;;;11.50;;
31728;SDS011;18309;43.658;1.312;2024-01-15T04:25:30;24.40;;;12.60;;
31728;SDS011;18309;43.658;1.312;2024-01-15T04:27:55;24.75;;;11.93;;
31728;SDS011;18309;43.658;1.312;2024-01-15T04:30:21;25.70;;;11.48;;
31728;SDS011;18309;43.658;1.312;2024-01-15T04:32:47;31.10;;;11.77;;
31728;SDS011;18309;43.658;1.312;2024-01-15T04:35:12;25.55;;;12.18;;
31728;SDS011;18309;43.658;1.312;2024-01-15T04:37:39;22.73;;;11.50;;
31728;SDS011;18309;43.658;1.312;2024-01-15T04:40:05;29.30;;;12.25;;
31728;SDS011;18309;43.658;1.312;2024-01-15T04:42:32;24.98;;;11.63;;
31728;SDS011;18309;43.658;1.312;2024-01-15T04:44:57;29.58;;;12.32;;
31728;SDS011;18309;43.658;1.312;2024-01-15T04:47:24;25.80;;;12.57;;
31728;SDS011;18309;43.658;1.312;2024-01-15T04:49:50;33.15;;;13.57;;
31728;SDS011;18309;43.658;1.312;2024-01-15T04:52:16;33.38;;;13.93;;
31728;SDS011;18309;43.658;1.312;2024-01-15T04:54:41;40.15;;;15.68;;
31728;SDS011;18309;43.658;1.312;2024-01-15T04:57:07;36.80;;;15.25;;
31728;SDS011;18309;43.658;1.312;2024-01-15T04:59:33;34.28;;;15.30;;
31728;SDS011;18309;43.658;1.312;2024-01-15T05:01:58;31.77;;;14.27;;
31728;SDS011;18309;43.658;1.312;2024-01-15T05:04:24;40.88;;;14.88;;
31728;SDS011;18309;43.658;1.312;2024-01-15T05:06:50;28.38;;;15.20;;
31728;SDS011;18309;43.658;1.312;2024-01-15T05:09:16;35.90;;;15.52;;
31728;SDS011;18309;43.658;1.312;2024-01-15T05:11:42;32.65;;;15.20;;
31728;SDS011;18309;43.658;1.312;2024-01-15T05:14:08;34.17;;;14.80;;
31728;SDS011;18309;43.658;1.312;2024-01-15T05:16:34;34.83;;;14.90;;
31728;SDS011;18309;43.658;1.312;2024-01-15T05:19:02;37.47;;;15.73;;
31728;SDS011;18309;43.658;1.312;2024-01-15T05:21:28;35.45;;;15.27;;
31728;SDS011;18309;43.658;1.312;2024-01-15T05:23:54;31.25;;;14.52;;
31728;SDS011;18309;43.658;1.312;2024-01-15T05:26:19;39.50;;;15.43;;
31728;SDS011;18309;43.658;1.312;2024-01-15T05:28:45;31.95;;;15.50;;
31728;SDS011;18309;43.658;1.312;2024-01-15T05:31:11;35.92;;;15.93;;
31728;SDS011;18309;43.658;1.312;2024-01-15T05:33:37;28.40;;;13.32;;
31728;SDS011;18309;43.658;1.312;2024-01-15T05:36:02;29.15;;;13.52;;
31728;SDS011;18309;43.658;1.312;2024-01-15T05:38:28;31.10;;;14.00;;
31728;SDS011;18309;43.658;1.312;2024-01-15T05:40:54;28.10;;;13.32;;
31728;SDS011;18309;43.658;1.312;2024-01-15T05:43:19;27.15;;;13.85;;
31728;SDS011;18309;43.658;1.312;2024-01-15T05:45:45;28.42;;;13.45;;
31728;SDS011;18309;43.658;1.312;2024-01-15T05:48:11;28.80;;;13.88;;
31728;SDS011;18309;43.658;1.312;2024-01-15T05:50:37;27.83;;;13.60;;
31728;SDS011;18309;43.658;1.312;2024-01-15T05:53:03;29.48;;;13.20;;
31728;SDS011;18309;43.658;1.312;2024-01-15T05:55:29;28.63;;;14.05;;
31728;SDS011;18309;43.658;1.312;2024-01-15T05:57:55;31.10;;;14.57;;
31728;SDS011;18309;43.658;1.312;2024-01-15T06:00:20;30.17;;;14.13;;
31728;SDS011;18309;43.658;1.312;2024-01-15T06:02:46;36.42;;;15.38;;
31728;SDS011;18309;43.658;1.312;2024-01-15T06:05:12;33.67;;;16.02;;
31728;SDS011;18309;43.658;1.312;2024-01-15T06:07:37;30.27;;;15.13;;
31728;SDS011;18309;43.658;1.312;2024-01-15T06:10:03;38.45;;;16.75;;
31728;SDS011;18309;43.658;1.312;2024-01-15T06:12:29;39.08;;;16.45;;
31728;SDS011;18309;43.658;1.312;2024-01-15T06:14:56;44.80;;;16.20;;
31728;SDS011;18309;43.658;1.312;2024-01-15T06:17:22;46.08;;;17.20;;
31728;SDS011;18309;43.658;1.312;2024-01-15T06:19:47;38.67;;;16.73;;
31728;SDS011;18309;43.658;1.312;2024-01-15T06:22:13;39.40;;;17.20;;
31728;SDS011;18309;43.658;1.312;2024-01-15T06:24:38;35.97;;;16.75;;
31728;SDS011;18309;43.658;1.312;2024-01-15T06:27:04;38.25;;;16.73;;
31728;SDS011;18309;43.658;1.312;2024-01-15T06:29:30;47.30;;;18.88;;
31728;SDS011;18309;43.658;1.312;2024-01-15T06:31:56;40.17;;;18.35;;
31728;SDS011;18309;43.658;1.312;2024-01-15T06:34:22;43.85;;;19.45;;
31728;SDS011;18309;43.658;1.312;2024-01-15T06:36:48;45.88;;;18.83;;
31728;SDS011;18309;43.658;1.312;2024-01-15T06:39:13;42.22;;;18.08;;
31728;SDS011;18309;43.658;1.312;2024-01-15T06:41:39;40.08;;;17.65;;
31728;SDS011;18309;43.658;1.312;2024-01-15T06:44:09;40.22;;;18.40;;
31728;SDS011;18309;43.658;1.312;2024-01-15T06:46:43;50.90;;;17.65;;
31728;SDS011;18309;43.658;1.312;2024-01-15T06:49:10;44.80;;;18.42;;
31728;SDS011;18309;43.658;1.312;2024-01-15T06:51:36;46.78;;;18.52;;
31728;SDS011;18309;43.658;1.312;2024-01-15T06:54:02;46.97;;;18.60;;
31728;SDS011;18309;43.658;1.312;2024-01-15T06:56:28;41.22;;;17.73;;
31728;SDS011;18309;43.658;1.312;2024-01-15T06:58:53;43.42;;;18.05;;
31728;SDS011;18309;43.658;1.312;2024-01-15T07:01:19;43.97;;;18.48;;
31728;SDS011;18309;43.658;1.312;2024-01-15T07:03:45;49.15;;;18.85;;
31728;SDS011;18309;43.658;1.312;2024-01-15T07:06:11;55.55;;;18.92;;
31728;SDS011;18309;43.658;1.312;2024-01-15T07:08:37;50.20;;;18.60;;
31728;SDS011;18309;43.658;1.312;2024-01-15T07:11:03;58.55;;;19.85;;
31728;SDS011;18309;43.658;1.312;2024-01-15T07:13:30;48.80;;;20.35;;
31728;SDS011;18309;43.658;1.312;2024-01-15T07:15:56;54.38;;;20.50;;
31728;SDS011;18309;43.658;1.312;2024-01-15T07:18:21;42.50;;;18.77;;
31728;SDS011;18309;43.658;1.312;2024-01-15T07:20:47;46.50;;;18.33;;
31728;SDS011;18309;43.658;1.312;2024-01-15T07:23:12;50.75;;;19.67;;
31728;SDS011;18309;43.658;1.312;2024-01-15T07:25:38;49.88;;;19.42;;
31728;SDS011;18309;43.658;1.312;2024-01-15T07:28:04;47.50;;;19.65;;
31728;SDS011;18309;43.658;1.312;2024-01-15T07:30:30;48.45;;;18.17;;
31728;SDS011;18309;43.658;1.312;2024-01-15T07:32:56;49.75;;;19.48;;
31728;SDS011;18309;43.658;1.312;2024-01-15T07:35:22;58.70;;;19.27;;
31728;SDS011;18309;43.658;1.312;2024-01-15T07:37:47;53.92;;;19.15;;
31728;SDS011;18309;43.658;1.312;2024-01-15T07:40:13;51.65;;;17.88;;
31728;SDS011;18309;43.658;1.312;2024-01-15T07:42:39;79.93;;;29.38;;
31728;SDS011;18309;43.658;1.312;2024-01-15T07:45:05;98.13;;;38.03;;
31728;SDS011;18309;43.658;1.312;2024-01-15T07:47:31;91.55;;;38.63;;
31728;SDS011;18309;43.658;1.312;2024-01-15T07:49:57;66.28;;;24.33;;
31728;SDS011;18309;43.658;1.312;2024-01-15T07:52:22;80.93;;;26.27;;
31728;SDS011;18309;43.658;1.312;2024-01-15T07:54:48;68.78;;;24.50;;
31728;SDS011;18309;43.658;1.312;2024-01-15T07:57:14;68.03;;;23.52;;
31728;SDS011;18309;43.658;1.312;2024-01-15T07:59:39;67.18;;;23.95;;
31728;SDS011;18309;43.658;1.312;2024-01-15T08:02:05;65.30;;;21.75;;
31728;SDS011;18309;43.658;1.312;2024-01-15T08:04:31;66.60;;;23.65;;
31728;SDS011;18309;43.658;1.312;2024-01-15T08:06:56;65.32;;;23.33;;
31728;SDS011;18309;43.658;1.312;2024-01-15T08:09:22;74.28;;;22.13;;
31728;SDS011;18309;43.658;1.312;2024-01-15T08:11:48;69.10;;;22.08;;
31728;SDS011;18309;43.658;1.312;2024-01-15T08:14:17;88.78;;;24.50;;
31728;SDS011;18309;43.658;1.312;2024-01-15T08:16:43;76.93;;;23.90;;
31728;SDS011;18309;43.658;1.312;2024-01-15T08:19:09;100.65;;;25.17;;
31728;SDS011;18309;43.658;1.312;2024-01-15T08:21:34;89.95;;;25.25;;
31728;SDS011;18309;43.658;1.312;2024-01-15T08:24:01;94.30;;;25.40;;
31728;SDS011;18309;43.658;1.312;2024-01-15T08:26:27;152.15;;;29.38;;
31728;SDS011;18309;43.658;1.312;2024-01-15T08:28:54;106.20;;;29.88;;
31728;SDS011;18309;43.658;1.312;2024-01-15T08:31:19;113.90;;;32.83;;
31728;SDS011;18309;43.658;1.312;2024-01-15T08:33:45;120.45;;;35.30;;
31728;SDS011;18309;43.658;1.312;2024-01-15T08:36:11;144.52;;;37.72;;
31728;SDS011;18309;43.658;1.312;2024-01-15T08:38:37;104.63;;;32.20;;
31728;SDS011;18309;43.658;1.312;2024-01-15T08:41:02;101.25;;;33.30;;
31728;SDS011;18309;43.658;1.312;2024-01-15T08:43:28;102.25;;;30.30;;
31728;SDS011;18309;43.658;1.312;2024-01-15T08:45:56;102.20;;;30.13;;
31728;SDS011;18309;43.658;1.312;2024-01-15T08:48:22;104.38;;;33.03;;
31728;SDS011;18309;43.658;1.312;2024-01-15T08:50:48;113.07;;;32.03;;
31728;SDS011;18309;43.658;1.312;2024-01-15T08:53:14;99.72;;;31.65;;
31728;SDS011;18309;43.658;1.312;2024-01-15T08:55:40;98.90;;;30.77;;
31728;SDS011;18309;43.658;1.312;2024-01-15T08:58:07;111.63;;;32.17;;
31728;SDS011;18309;43.658;1.312;2024-01-15T09:00:33;121.43;;;32.47;;
31728;SDS011;18309;43.658;1.312;2024-01-15T09:02:59;115.15;;;32.00;;
31728;SDS011;18309;43.658;1.312;2024-01-15T09:05:25;118.57;;;31.65;;
31728;SDS011;18309;43.658;1.312;2024-01-15T09:07:50;121.38;;;32.13;;
31728;SDS011;18309;43.658;1.312;2024-01-15T09:10:17;108.93;;;31.70;;
31728;SDS011;18309;43.658;1.312;2024-01-15T09:12:43;132.55;;;30.38;;
31728;SDS011;18309;43.658;1.312;2024-01-15T09:15:09;86.68;;;27.35;;
31728;SDS011;18309;43.658;1.312;2024-01-15T09:17:35;89.15;;;29.30;;
31728;SDS011;18309;43.658;1.312;2024-01-15T09:20:00;87.93;;;30.42;;
31728;SDS011;18309;43.658;1.312;2024-01-15T09:22:26;109.13;;;28.65;;
31728;SDS011;18309;43.658;1.312;2024-01-15T09:24:52;124.97;;;31.02;;
31728;SDS011;18309;43.658;1.312;2024-01-15T09:27:18;87.22;;;28.40;;
31728;SDS011;18309;43.658;1.312;2024-01-15T09:29:43;84.00;;;28.67;;
31728;SDS011;18309;43.658;1.312;2024-01-15T09:32:11;92.68;;;28.17;;
31728;SDS011;18309;43.658;1.312;2024-01-15T09:34:37;101.55;;;30.17;;
31728;SDS011;18309;43.658;1.312;2024-01-15T09:37:03;81.95;;;27.30;;
31728;SDS011;18309;43.658;1.312;2024-01-15T09:39:29;88.95;;;29.60;;
31728;SDS011;18309;43.658;1.312;2024-01-15T09:41:55;93.03;;;29.02;;
31728;SDS011;18309;43.658;1.312;2024-01-15T09:44:22;95.18;;;31.55;;
31728;SDS011;18309;43.658;1.312;2024-01-15T09:46:48;106.07;;;32.08;;
31728;SDS011;18309;43.658;1.312;2024-01-15T09:49:17;113.70;;;35.15;;
31728;SDS011;18309;43.658;1.312;2024-01-15T09:51:43;117.68;;;36.42;;
31728;SDS011;18309;43.658;1.312;2024-01-15T09:54:09;122.07;;;36.30;;
31728;SDS011;18309;43.658;1.312;2024-01-15T09:56:38;108.68;;;34.03;;
31728;SDS011;18309;43.658;1.312;2024-01-15T09:59:04;105.75;;;33.28;;
31728;SDS011;18309;43.658;1.312;2024-01-15T10:01:33;114.03;;;36.53;;
31728;SDS011;18309;43.658;1.312;2024-01-15T10:06:27;107.78;;;31.45;;
31728;SDS011;18309;43.658;1.312;2024-01-15T10:08:53;113.32;;;33.50;;
31728;SDS011;18309;43.658;1.312;2024-01-15T10:11:21;97.50;;;31.15;;
31728;SDS011;18309;43.658;1.312;2024-01-15T10:13:47;105.00;;;32.42;;
31728;SDS011;18309;43.658;1.312;2024-01-15T10:18:47;94.05;;;30.90;;
31728;SDS011;18309;43.658;1.312;2024-01-15T10:21:13;98.32;;;31.73;;
31728;SDS011;18309;43.658;1.312;2024-01-15T10:23:39;110.13;;;35.38;;
31728;SDS011;18309;43.658;1.312;2024-01-15T10:26:05;91.90;;;30.30;;
31728;SDS011;18309;43.658;1.312;2024-01-15T10:28:31;95.90;;;32.33;;
31728;SDS011;18309;43.658;1.312;2024-01-15T10:30:57;88.05;;;29.40;;
31728;SDS011;18309;43.658;1.312;2024-01-15T10:33:27;93.38;;;31.25;;
31728;SDS011;18309;43.658;1.312;2024-01-15T10:35:56;81.30;;;29.83;;
31728;SDS011;18309;43.658;1.312;2024-01-15T10:38:22;86.63;;;29.37;;
31728;SDS011;18309;43.658;1.312;2024-01-15T10:40:53;89.45;;;30.58;;
31728;SDS011;18309;43.658;1.312;2024-01-15T10:43:20;80.70;;;29.88;;
31728;SDS011;18309;43.658;1.312;2024-01-15T10:45:46;93.05;;;31.63;;
31728;SDS011;18309;43.658;1.312;2024-01-15T10:48:16;93.38;;;32.30;;
31728;SDS011;18309;43.658;1.312;2024-01-15T10:50:46;105.03;;;33.80;;
31728;SDS011;18309;43.658;1.312;2024-01-15T10:53:13;85.47;;;33.78;;
31728;SDS011;18309;43.658;1.312;2024-01-15T10:55:41;101.20;;;34.08;;
31728;SDS011;18309;43.658;1.312;2024-01-15T10:58:07;97.93;;;35.85;;
31728;SDS011;18309;43.658;1.312;2024-01-15T11:00:37;98.78;;;34.75;;
31728;SDS011;18309;43.658;1.312;2024-01-15T11:03:04;101.85;;;34.97;;
31728;SDS011;18309;43.658;1.312;2024-01-15T11:05:37;97.03;;;36.33;;
31728;SDS011;18309;43.658;1.312;2024-01-15T11:08:05;95.10;;;35.38;;
31728;SDS011;18309;43.658;1.312;2024-01-15T11:10:42;99.95;;;37.92;;
31728;SDS011;18309;43.658;1.312;2024-01-15T11:13:14;91.97;;;35.47;;
31728;SDS011;18309;43.658;1.312;2024-01-15T11:15:55;108.65;;;38.97;;
31728;SDS011;18309;43.658;1.312;2024-01-15T11:18:21;106.03;;;40.72;;
31728;SDS011;18309;43.658;1.312;2024-01-15T11:23:47;98.00;;;36.72;;
31728;SDS011;18309;43.658;1.312;2024-01-15T11:28:57;96.65;;;35.13;;
31728;SDS011;18309;43.658;1.312;2024-01-15T11:34:06;88.40;;;35.20;;
31728;SDS011;18309;43.658;1.312;2024-01-15T11:37:15;87.72;;;35.80;;
31728;SDS011;18309;43.658;1.312;2024-01-15T11:41:59;81.38;;;34.15;;
31728;SDS011;18309;43.658;1.312;2024-01-15T11:44:26;62.17;;;30.45;;
31728;SDS011;18309;43.658;1.312;2024-01-15T11:47:02;63.03;;;31.67;;
31728;SDS011;18309;43.658;1.312;2024-01-15T11:52:21;53.00;;;27.33;;
31728;SDS011;18309;43.658;1.312;2024-01-15T11:55:10;54.95;;;26.02;;
31728;SDS011;18309;43.658;1.312;2024-01-15T12:00:05;48.97;;;25.50;;
31728;SDS011;18309;43.658;1.312;2024-01-15T12:02:33;48.80;;;26.67;;
31728;SDS011;18309;43.658;1.312;2024-01-15T12:04:59;40.67;;;23.27;;
31728;SDS011;18309;43.658;1.312;2024-01-15T12:07:24;42.08;;;22.20;;
31728;SDS011;18309;43.658;1.312;2024-01-15T12:09:50;42.67;;;22.23;;
31728;SDS011;18309;43.658;1.312;2024-01-15T12:12:24;43.15;;;23.20;;
31728;SDS011;18309;43.658;1.312;2024-01-15T12:15:04;39.42;;;23.13;;
31728;SDS011;18309;43.658;1.312;2024-01-15T12:17:30;41.95;;;23.92;;
31728;SDS011;18309;43.658;1.312;2024-01-15T12:19:56;40.17;;;23.23;;
31728;SDS011;18309;43.658;1.312;2024-01-15T12:22:22;46.90;;;26.05;;
31728;SDS011;18309;43.658;1.312;2024-01-15T12:24:48;52.42;;;28.25;;
31728;SDS011;18309;43.658;1.312;2024-01-15T12:27:13;51.88;;;27.08;;
31728;SDS011;18309;43.658;1.312;2024-01-15T12:29:40;49.55;;;26.15;;
31728;SDS011;18309;43.658;1.312;2024-01-15T12:32:05;66.00;;;30.70;;
31728;SDS011;18309;43.658;1.312;2024-01-15T12:34:33;49.40;;;27.40;;
31728;SDS011;18309;43.658;1.312;2024-01-15T12:36:58;45.95;;;26.27;;
31728;SDS011;18309;43.658;1.312;2024-01-15T12:39:24;45.55;;;26.00;;
31728;SDS011;18309;43.658;1.312;2024-01-15T12:41:50;52.42;;;29.50;;
31728;SDS011;18309;43.658;1.312;2024-01-15T12:44:16;46.75;;;25.88;;
31728;SDS011;18309;43.658;1.312;2024-01-15T12:46:42;44.30;;;25.42;;
31728;SDS011;18309;43.658;1.312;2024-01-15T12:49:08;47.40;;;25.40;;
31728;SDS011;18309;43.658;1.312;2024-01-15T12:51:34;46.85;;;24.48;;
31728;SDS011;18309;43.658;1.312;2024-01-15T12:54:00;44.30;;;25.88;;
31728;SDS011;18309;43.658;1.312;2024-01-15T12:56:25;52.88;;;30.20;;
31728;SDS011;18309;43.658;1.312;2024-01-15T12:58:51;43.58;;;25.67;;
31728;SDS011;18309;43.658;1.312;2024-01-15T13:01:17;43.80;;;26.88;;
31728;SDS011;18309;43.658;1.312;2024-01-15T13:03:43;41.92;;;25.25;;
31728;SDS011;18309;43.658;1.312;2024-01-15T13:06:08;42.40;;;23.92;;
31728;SDS011;18309;43.658;1.312;2024-01-15T13:08:34;43.55;;;26.83;;
31728;SDS011;18309;43.658;1.312;2024-01-15T13:11:00;40.13;;;24.45;;
31728;SDS011;18309;43.658;1.312;2024-01-15T13:13:26;41.15;;;24.92;;
31728;SDS011;18309;43.658;1.312;2024-01-15T13:15:52;39.47;;;25.45;;
31728;SDS011;18309;43.658;1.312;2024-01-15T13:18:18;36.38;;;20.27;;
31728;SDS011;18309;43.658;1.312;2024-01-15T13:20:43;30.05;;;18.30;;
31728;SDS011;18309;43.658;1.312;2024-01-15T13:23:10;29.17;;;17.08;;
31728;SDS011;18309;43.658;1.312;2024-01-15T13:25:36;27.92;;;18.08;;
31728;SDS011;18309;43.658;1.312;2024-01-15T13:28:03;35.33;;;17.95;;
31728;SDS011;18309;43.658;1.312;2024-01-15T13:30:30;28.73;;;18.38;;
31728;SDS011;18309;43.658;1.312;2024-01-15T13:32:56;32.15;;;17.70;;
31728;SDS011;18309;43.658;1.312;2024-01-15T13:35:23;30.67;;;18.25;;
31728;SDS011;18309;43.658;1.312;2024-01-15T13:37:48;29.45;;;17.00;;
31728;SDS011;18309;43.658;1.312;2024-01-15T13:40:14;27.20;;;16.35;;
31728;SDS011;18309;43.658;1.312;2024-01-15T13:42:45;27.40;;;15.40;;
31728;SDS011;18309;43.658;1.312;2024-01-15T13:45:11;23.85;;;14.15;;
31728;SDS011;18309;43.658;1.312;2024-01-15T13:47:39;23.23;;;13.48;;
31728;SDS011;18309;43.658;1.312;2024-01-15T13:50:11;15.50;;;8.55;;
31728;SDS011;18309;43.658;1.312;2024-01-15T13:52:37;13.93;;;8.00;;
31728;SDS011;18309;43.658;1.312;2024-01-15T13:55:03;9.55;;;6.32;;
31728;SDS011;18309;43.658;1.312;2024-01-15T13:57:28;10.63;;;5.75;;
31728;SDS011;18309;43.658;1.312;2024-01-15T13:59:54;6.97;;;4.03;;
31728;SDS011;18309;43.658;1.312;2024-01-15T14:02:20;7.25;;;4.40;;
31728;SDS011;18309;43.658;1.312;2024-01-15T14:04:46;6.55;;;4.18;;
31728;SDS011;18309;43.658;1.312;2024-01-15T14:07:12;6.45;;;3.53;;
31728;SDS011;18309;43.658;1.312;2024-01-15T14:09:38;7.35;;;2.90;;
31728;SDS011;18309;43.658;1.312;2024-01-15T14:12:04;3.92;;;2.45;;
31728;SDS011;18309;43.658;1.312;2024-01-15T14:14:31;5.10;;;2.90;;
31728;SDS011;18309;43.658;1.312;2024-01-15T14:16:56;4.20;;;2.83;;
31728;SDS011;18309;43.658;1.312;2024-01-15T14:19:22;6.13;;;3.60;;
31728;SDS011;18309;43.658;1.312;2024-01-15T14:21:47;9.52;;;4.15;;
31728;SDS011;18309;43.658;1.312;2024-01-15T14:24:13;8.05;;;4.50;;
31728;SDS011;18309;43.658;1.312;2024-01-15T14:26:39;12.10;;;4.75;;
31728;SDS011;18309;43.658;1.312;2024-01-15T14:29:05;9.48;;;5.20;;
31728;SDS011;18309;43.658;1.312;2024-01-15T14:31:31;7.10;;;4.88;;
31728;SDS011;18309;43.658;1.312;2024-01-15T14:33:58;9.32;;;5.50;;
31728;SDS011;18309;43.658;1.312;2024-01-15T14:36:24;12.75;;;5.90;;
31728;SDS011;18309;43.658;1.312;2024-01-15T14:38:50;13.35;;;8.70;;